General Roberto Fierro Villalobos International Airport


Codes: MMCU/CUU
Name: General Roberto Fierro Villalobos International Airport
City: Chihuahua
Country: Mexico
Elevation: 4462 ft.
Wikipedia:

Photos at General Roberto Fierro Villalobos International Airport


   Photos courtesy of SpottingLog. You can add your own sightings and photos by signing up for a free trial today.



No photos found.

Weather at General Roberto Fierro Villalobos International Airport


Time (UTC)DescriptionTempratureWindCloud coverageVisibilityPressureHumidity
13-Jun-2024 03:00Clear Sky36°C7 mph, NE2%10000m1008hPa15%
13-Jun-2024 06:00Clear Sky33°C4 mph, E2%10000m1009hPa17%
13-Jun-2024 09:00Clear Sky28°C2 mph, SE1%10000m1011hPa25%
13-Jun-2024 12:00Clear Sky27°C2 mph, S0%10000m1011hPa30%
13-Jun-2024 15:00Clear Sky31°C4 mph, S0%10000m1012hPa26%
13-Jun-2024 18:00Clear Sky36°C7 mph, E0%10000m1010hPa18%
13-Jun-2024 21:00Clear Sky38°C7 mph, NE5%10000m1008hPa14%
14-Jun-2024 00:00Scattered Clouds38°C16 mph, NE37%10000m1006hPa12%
14-Jun-2024 03:00Scattered Clouds33°C20 mph, NE38%10000m1009hPa20%
14-Jun-2024 06:00Few Clouds31°C4 mph, E24%10000m1010hPa18%
14-Jun-2024 09:00Clear Sky28°C7 mph, SE3%10000m1011hPa25%
14-Jun-2024 12:00Clear Sky26°C4 mph, SE1%10000m1011hPa35%
14-Jun-2024 15:00Clear Sky30°C7 mph, SE0%10000m1012hPa29%
14-Jun-2024 18:00Clear Sky34°C7 mph, SE0%10000m1011hPa22%
14-Jun-2024 21:00Clear Sky37°C9 mph, E0%10000m1007hPa14%
15-Jun-2024 00:00Clear Sky37°C11 mph, E0%10000m1005hPa12%
15-Jun-2024 03:00Clear Sky34°C4 mph, SE3%10000m1006hPa15%
15-Jun-2024 06:00Few Clouds31°C9 mph, S23%10000m1008hPa21%
15-Jun-2024 09:00Clear Sky28°C7 mph, SE6%10000m1008hPa27%
15-Jun-2024 12:00Clear Sky27°C9 mph, SE6%10000m1009hPa33%
15-Jun-2024 15:00Clear Sky30°C4 mph, S0%10000m1010hPa30%
15-Jun-2024 18:00Clear Sky35°C4 mph, NE0%10000m1008hPa15%
15-Jun-2024 21:00Clear Sky38°C7 mph, E0%10000m1005hPa12%
16-Jun-2024 00:00Clear Sky38°C9 mph, E0%10000m1002hPa11%
16-Jun-2024 03:00Clear Sky35°C7 mph, SE2%10000m1003hPa14%
16-Jun-2024 06:00Scattered Clouds33°C11 mph, SE35%10000m1005hPa17%
16-Jun-2024 09:00Clear Sky30°C7 mph, SE2%10000m1005hPa23%
16-Jun-2024 12:00Clear Sky26°C2 mph, NE1%10000m1007hPa25%
16-Jun-2024 15:00Clear Sky30°C0 mph, NE0%10000m1008hPa21%
16-Jun-2024 18:00Clear Sky35°C7 mph, E0%10000m1005hPa16%
16-Jun-2024 21:00Clear Sky38°C0 mph, NW0%10000m1002hPa11%
17-Jun-2024 00:00Clear Sky39°C7 mph, E1%10000m999hPa9%
17-Jun-2024 03:00Scattered Clouds35°C13 mph, W37%10000m1001hPa13%
17-Jun-2024 06:00Broken Clouds33°C11 mph, SE56%10000m1003hPa16%
17-Jun-2024 09:00Scattered Clouds30°C2 mph, S25%10000m1003hPa20%
17-Jun-2024 12:00Few Clouds27°C2 mph, W12%10000m1005hPa26%
17-Jun-2024 15:00Clear Sky31°C4 mph, N0%10000m1006hPa21%
17-Jun-2024 18:00Clear Sky35°C4 mph, E1%10000m1004hPa16%
17-Jun-2024 21:00Clear Sky39°C7 mph, E2%10000m1000hPa12%
18-Jun-2024 00:00Scattered Clouds29°C38 mph, W42%10000m1003hPa32%